Terminal Aerodrome Forecast
Issued by NWS

Home | Current Version | Previous Version | Text Only | Print | Product List | Glossary Off
Versions: 1 2 3 4 5 6 7 8 9 10 11 12 13 14 15 16

000
FTUS43 KIWX 201200 AAA
TAFSBN
TAF AMD
KSBN 201216Z 2012/2112 21010KT P6SM BKN100
     FM201300 20010KT 6SM -SHRA VCTS OVC060CB
     FM201400 25012KT P6SM VCSH BKN040
     FM202000 31012KT P6SM OVC030
     FM210300 32010KT P6SM OVC020=

USA.gov is the U.S. government's official web portal to all federal, state and local government web resources and services.